sensor_id;sensor_type;location;lat;lon;timestamp;temperature;humidity
54518;DHT22;40423;53.176;6.002;2022-09-09T00:04:12;15.60;99.90
54518;DHT22;40423;53.176;6.002;2022-09-09T00:09:47;15.50;99.90
54518;DHT22;40423;53.176;6.002;2022-09-09T00:12:15;15.50;99.90
54518;DHT22;40423;53.176;6.002;2022-09-09T00:14:55;15.50;99.90
54518;DHT22;40423;53.176;6.002;2022-09-09T00:17:54;15.50;99.90
54518;DHT22;40423;53.176;6.002;2022-09-09T00:23:27;15.40;99.90
54518;DHT22;40423;53.176;6.002;2022-09-09T00:26:03;15.40;99.90
54518;DHT22;40423;53.176;6.002;2022-09-09T00:28:33;15.40;99.90
54518;DHT22;40423;53.176;6.002;2022-09-09T00:31:12;15.40;99.90
54518;DHT22;40423;53.176;6.002;2022-09-09T00:33:39;15.40;99.90
54518;DHT22;40423;53.176;6.002;2022-09-09T00:36:13;15.40;99.90
54518;DHT22;40423;53.176;6.002;2022-09-09T00:38:47;15.40;99.90
54518;DHT22;40423;53.176;6.002;2022-09-09T00:41:18;15.40;99.90
54518;DHT22;40423;53.176;6.002;2022-09-09T00:43:52;15.40;99.90
54518;DHT22;40423;53.176;6.002;2022-09-09T00:49:45;15.30;99.90
54518;DHT22;40423;53.176;6.002;2022-09-09T00:52:47;15.30;99.90
54518;DHT22;40423;53.176;6.002;2022-09-09T00:57:52;15.20;99.90
54518;DHT22;40423;53.176;6.002;2022-09-09T01:02:53;15.20;99.90
54518;DHT22;40423;53.176;6.002;2022-09-09T01:05:33;15.20;99.90
54518;DHT22;40423;53.176;6.002;2022-09-09T01:08:02;15.20;99.90
54518;DHT22;40423;53.176;6.002;2022-09-09T01:10:37;15.10;99.90
54518;DHT22;40423;53.176;6.002;2022-09-09T01:13:14;15.10;99.90
54518;DHT22;40423;53.176;6.002;2022-09-09T01:15:43;15.20;99.90
54518;DHT22;40423;53.176;6.002;2022-09-09T01:18:17;15.20;99.90
54518;DHT22;40423;53.176;6.002;2022-09-09T01:28:46;15.20;99.90
54518;DHT22;40423;53.176;6.002;2022-09-09T01:31:17;15.20;99.90
54518;DHT22;40423;53.176;6.002;2022-09-09T01:33:43;15.20;99.90
54518;DHT22;40423;53.176;6.002;2022-09-09T01:38:52;15.20;99.90
54518;DHT22;40423;53.176;6.002;2022-09-09T01:41:18;15.20;99.90
54518;DHT22;40423;53.176;6.002;2022-09-09T01:43:44;15.20;99.90
54518;DHT22;40423;53.176;6.002;2022-09-09T01:46:11;15.10;99.90
54518;DHT22;40423;53.176;6.002;2022-09-09T01:48:37;15.10;99.90
54518;DHT22;40423;53.176;6.002;2022-09-09T01:51:04;15.10;99.90
54518;DHT22;40423;53.176;6.002;2022-09-09T01:53:30;15.10;99.90
54518;DHT22;40423;53.176;6.002;2022-09-09T01:56:05;15.10;99.90
54518;DHT22;40423;53.176;6.002;2022-09-09T01:59:04;15.00;99.90
54518;DHT22;40423;53.176;6.002;2022-09-09T02:04:04;15.00;99.90
54518;DHT22;40423;53.176;6.002;2022-09-09T02:06:40;15.00;99.90
54518;DHT22;40423;53.176;6.002;2022-09-09T02:09:08;15.00;99.90
54518;DHT22;40423;53.176;6.002;2022-09-09T02:11:35;15.00;99.90
54518;DHT22;40423;53.176;6.002;2022-09-09T02:14:22;15.00;99.90
54518;DHT22;40423;53.176;6.002;2022-09-09T02:16:59;15.00;99.90
54518;DHT22;40423;53.176;6.002;2022-09-09T02:19:34;14.90;99.90
54518;DHT22;40423;53.176;6.002;2022-09-09T02:22:00;14.90;99.90
54518;DHT22;40423;53.176;6.002;2022-09-09T02:24:29;14.90;99.90
54518;DHT22;40423;53.176;6.002;2022-09-09T02:26:57;14.90;99.90
54518;DHT22;40423;53.176;6.002;2022-09-09T02:29:30;14.90;99.90
54518;DHT22;40423;53.176;6.002;2022-09-09T02:32:00;14.90;99.90
54518;DHT22;40423;53.176;6.002;2022-09-09T02:34:30;14.80;99.90
54518;DHT22;40423;53.176;6.002;2022-09-09T02:36:57;14.80;99.90
54518;DHT22;40423;53.176;6.002;2022-09-09T02:39:25;14.80;99.90
54518;DHT22;40423;53.176;6.002;2022-09-09T02:41:51;14.80;99.90
54518;DHT22;40423;53.176;6.002;2022-09-09T02:44:18;14.80;99.90
54518;DHT22;40423;53.176;6.002;2022-09-09T02:50:26;14.90;99.90
54518;DHT22;40423;53.176;6.002;2022-09-09T02:57:51;14.90;99.90
54518;DHT22;40423;53.176;6.002;2022-09-09T03:00:26;14.90;99.90
54518;DHT22;40423;53.176;6.002;2022-09-09T03:02:52;14.90;99.90
54518;DHT22;40423;53.176;6.002;2022-09-09T03:05:20;14.90;99.90
54518;DHT22;40423;53.176;6.002;2022-09-09T03:07:46;14.90;99.90
54518;DHT22;40423;53.176;6.002;2022-09-09T03:10:12;14.80;99.90
54518;DHT22;40423;53.176;6.002;2022-09-09T03:12:39;15.10;99.90
54518;DHT22;40423;53.176;6.002;2022-09-09T03:15:06;14.80;99.90
54518;DHT22;40423;53.176;6.002;2022-09-09T03:17:32;14.90;99.90
54518;DHT22;40423;53.176;6.002;2022-09-09T03:19:57;14.90;99.90
54518;DHT22;40423;53.176;6.002;2022-09-09T03:22:25;14.80;99.90
54518;DHT22;40423;53.176;6.002;2022-09-09T03:24:51;14.80;99.90
54518;DHT22;40423;53.176;6.002;2022-09-09T03:27:17;14.80;99.90
54518;DHT22;40423;53.176;6.002;2022-09-09T03:29:45;14.80;99.90
54518;DHT22;40423;53.176;6.002;2022-09-09T03:32:11;14.80;99.90
54518;DHT22;40423;53.176;6.002;2022-09-09T03:34:37;14.80;99.90
54518;DHT22;40423;53.176;6.002;2022-09-09T03:37:05;14.80;99.90
54518;DHT22;40423;53.176;6.002;2022-09-09T03:39:31;14.80;99.90
54518;DHT22;40423;53.176;6.002;2022-09-09T03:41:57;14.80;99.90
54518;DHT22;40423;53.176;6.002;2022-09-09T03:44:23;14.80;99.90
54518;DHT22;40423;53.176;6.002;2022-09-09T03:46:49;14.70;99.90
54518;DHT22;40423;53.176;6.002;2022-09-09T03:49:14;14.80;99.90
54518;DHT22;40423;53.176;6.002;2022-09-09T03:51:41;14.80;99.90
54518;DHT22;40423;53.176;6.002;2022-09-09T03:54:07;14.80;99.90
54518;DHT22;40423;53.176;6.002;2022-09-09T03:56:36;14.80;99.90
54518;DHT22;40423;53.176;6.002;2022-09-09T03:59:03;14.80;99.90
54518;DHT22;40423;53.176;6.002;2022-09-09T04:01:29;14.80;99.90
54518;DHT22;40423;53.176;6.002;2022-09-09T04:03:55;14.80;99.90
54518;DHT22;40423;53.176;6.002;2022-09-09T04:06:24;14.80;99.90
54518;DHT22;40423;53.176;6.002;2022-09-09T04:08:50;14.80;99.90
54518;DHT22;40423;53.176;6.002;2022-09-09T04:11:17;14.80;99.90
54518;DHT22;40423;53.176;6.002;2022-09-09T04:13:43;14.80;99.90
54518;DHT22;40423;53.176;6.002;2022-09-09T04:16:11;14.80;99.90
54518;DHT22;40423;53.176;6.002;2022-09-09T04:18:38;14.70;99.90
54518;DHT22;40423;53.176;6.002;2022-09-09T04:21:05;14.70;99.90
54518;DHT22;40423;53.176;6.002;2022-09-09T04:23:32;14.70;99.90
54518;DHT22;40423;53.176;6.002;2022-09-09T04:26:00;14.80;99.90
54518;DHT22;40423;53.176;6.002;2022-09-09T04:28:28;14.80;99.90
54518;DHT22;40423;53.176;6.002;2022-09-09T04:30:55;14.80;99.90
54518;DHT22;40423;53.176;6.002;2022-09-09T04:33:25;14.80;99.90
54518;DHT22;40423;53.176;6.002;2022-09-09T04:35:57;14.80;99.90
54518;DHT22;40423;53.176;6.002;2022-09-09T04:38:22;14.80;99.90
54518;DHT22;40423;53.176;6.002;2022-09-09T04:40:50;14.80;99.90
54518;DHT22;40423;53.176;6.002;2022-09-09T04:43:17;14.80;99.90
54518;DHT22;40423;53.176;6.002;2022-09-09T04:45:47;14.80;99.90
54518;DHT22;40423;53.176;6.002;2022-09-09T04:48:13;14.80;99.90
54518;DHT22;40423;53.176;6.002;2022-09-09T04:50:39;14.80;99.90
54518;DHT22;40423;53.176;6.002;2022-09-09T04:53:06;14.80;99.90
54518;DHT22;40423;53.176;6.002;2022-09-09T04:55:35;14.90;99.90
54518;DHT22;40423;53.176;6.002;2022-09-09T04:58:05;14.90;99.90
54518;DHT22;40423;53.176;6.002;2022-09-09T05:00:33;14.90;99.90
54518;DHT22;40423;53.176;6.002;2022-09-09T05:03:04;14.90;99.90
54518;DHT22;40423;53.176;6.002;2022-09-09T05:05:32;14.90;99.90
54518;DHT22;40423;53.176;6.002;2022-09-09T05:08:07;14.90;99.90
54518;DHT22;40423;53.176;6.002;2022-09-09T05:10:37;14.90;99.90
54518;DHT22;40423;53.176;6.002;2022-09-09T05:13:03;14.90;99.90
54518;DHT22;40423;53.176;6.002;2022-09-09T05:15:30;14.90;99.90
54518;DHT22;40423;53.176;6.002;2022-09-09T05:18:00;14.90;99.90
54518;DHT22;40423;53.176;6.002;2022-09-09T05:20:26;14.90;99.90
54518;DHT22;40423;53.176;6.002;2022-09-09T05:22:53;14.90;99.90
54518;DHT22;40423;53.176;6.002;2022-09-09T05:25:20;14.90;99.90
54518;DHT22;40423;53.176;6.002;2022-09-09T05:27:46;14.90;99.90
54518;DHT22;40423;53.176;6.002;2022-09-09T05:30:11;14.90;99.90
54518;DHT22;40423;53.176;6.002;2022-09-09T05:32:37;15.00;99.90
54518;DHT22;40423;53.176;6.002;2022-09-09T05:35:03;15.00;99.90
54518;DHT22;40423;53.176;6.002;2022-09-09T05:37:31;15.00;99.90
54518;DHT22;40423;53.176;6.002;2022-09-09T05:39:57;15.00;99.90
54518;DHT22;40423;53.176;6.002;2022-09-09T05:42:23;15.00;99.90
54518;DHT22;40423;53.176;6.002;2022-09-09T05:44:49;15.00;99.90
54518;DHT22;40423;53.176;6.002;2022-09-09T05:47:16;15.00;99.90
54518;DHT22;40423;53.176;6.002;2022-09-09T05:49:42;15.00;99.90
54518;DHT22;40423;53.176;6.002;2022-09-09T05:52:08;15.00;99.90
54518;DHT22;40423;53.176;6.002;2022-09-09T05:54:35;15.00;99.90
54518;DHT22;40423;53.176;6.002;2022-09-09T05:57:03;15.00;99.90
54518;DHT22;40423;53.176;6.002;2022-09-09T05:59:29;15.00;99.90
54518;DHT22;40423;53.176;6.002;2022-09-09T06:01:54;15.00;99.90
54518;DHT22;40423;53.176;6.002;2022-09-09T06:04:20;15.00;99.90
54518;DHT22;40423;53.176;6.002;2022-09-09T06:06:50;15.10;99.90
54518;DHT22;40423;53.176;6.002;2022-09-09T06:09:16;15.10;99.90
54518;DHT22;40423;53.176;6.002;2022-09-09T06:11:42;15.10;99.90
54518;DHT22;40423;53.176;6.002;2022-09-09T06:14:08;15.10;99.90
54518;DHT22;40423;53.176;6.002;2022-09-09T06:16:34;15.20;99.90
54518;DHT22;40423;53.176;6.002;2022-09-09T06:19:01;15.20;99.90
54518;DHT22;40423;53.176;6.002;2022-09-09T06:21:36;15.30;99.90
54518;DHT22;40423;53.176;6.002;2022-09-09T06:24:04;15.30;99.90
54518;DHT22;40423;53.176;6.002;2022-09-09T06:26:32;15.30;99.90
54518;DHT22;40423;53.176;6.002;2022-09-09T06:28:58;15.30;99.90
54518;DHT22;40423;53.176;6.002;2022-09-09T06:31:27;15.30;99.90
54518;DHT22;40423;53.176;6.002;2022-09-09T06:33:56;15.30;99.90
54518;DHT22;40423;53.176;6.002;2022-09-09T06:36:24;15.40;99.90
54518;DHT22;40423;53.176;6.002;2022-09-09T06:38:51;15.30;99.90
54518;DHT22;40423;53.176;6.002;2022-09-09T06:41:18;15.40;99.90
54518;DHT22;40423;53.176;6.002;2022-09-09T06:43:45;15.40;99.90
54518;DHT22;40423;53.176;6.002;2022-09-09T06:46:16;15.40;99.90
54518;DHT22;40423;53.176;6.002;2022-09-09T06:48:43;15.40;99.90
54518;DHT22;40423;53.176;6.002;2022-09-09T06:51:13;15.50;99.90
54518;DHT22;40423;53.176;6.002;2022-09-09T06:53:40;15.50;99.90
54518;DHT22;40423;53.176;6.002;2022-09-09T06:56:28;15.50;99.90
54518;DHT22;40423;53.176;6.002;2022-09-09T06:58:56;15.50;99.90
54518;DHT22;40423;53.176;6.002;2022-09-09T07:01:25;15.50;99.90
54518;DHT22;40423;53.176;6.002;2022-09-09T07:03:53;15.50;99.90
54518;DHT22;40423;53.176;6.002;2022-09-09T07:06:25;15.60;99.90
54518;DHT22;40423;53.176;6.002;2022-09-09T07:08:55;15.60;99.90
54518;DHT22;40423;53.176;6.002;2022-09-09T07:11:23;15.60;99.90
54518;DHT22;40423;53.176;6.002;2022-09-09T07:13:49;15.60;99.90
54518;DHT22;40423;53.176;6.002;2022-09-09T07:16:18;15.70;99.90
54518;DHT22;40423;53.176;6.002;2022-09-09T07:18:44;15.70;99.90
54518;DHT22;40423;53.176;6.002;2022-09-09T07:21:11;15.70;99.90
54518;DHT22;40423;53.176;6.002;2022-09-09T07:23:40;15.70;99.90
54518;DHT22;40423;53.176;6.002;2022-09-09T07:26:12;15.70;99.90
54518;DHT22;40423;53.176;6.002;2022-09-09T07:28:39;15.80;99.90
54518;DHT22;40423;53.176;6.002;2022-09-09T07:31:05;15.80;99.90
54518;DHT22;40423;53.176;6.002;2022-09-09T07:33:33;15.90;99.90
54518;DHT22;40423;53.176;6.002;2022-09-09T07:36:08;15.90;99.90
54518;DHT22;40423;53.176;6.002;2022-09-09T07:38:55;15.90;99.90
54518;DHT22;40423;53.176;6.002;2022-09-09T07:41:27;16.00;99.90
54518;DHT22;40423;53.176;6.002;2022-09-09T07:43:53;16.10;99.90
54518;DHT22;40423;53.176;6.002;2022-09-09T07:46:25;16.30;99.90
54518;DHT22;40423;53.176;6.002;2022-09-09T07:48:54;16.40;99.90
54518;DHT22;40423;53.176;6.002;2022-09-09T07:51:27;16.50;99.90
54518;DHT22;40423;53.176;6.002;2022-09-09T07:53:59;16.70;99.90
54518;DHT22;40423;53.176;6.002;2022-09-09T07:56:26;16.90;99.90
54518;DHT22;40423;53.176;6.002;2022-09-09T07:58:53;17.10;99.90
54518;DHT22;40423;53.176;6.002;2022-09-09T08:01:22;17.30;99.90
54518;DHT22;40423;53.176;6.002;2022-09-09T08:03:55;17.40;99.90
54518;DHT22;40423;53.176;6.002;2022-09-09T08:06:22;17.40;99.90
54518;DHT22;40423;53.176;6.002;2022-09-09T08:08:53;17.50;99.90
54518;DHT22;40423;53.176;6.002;2022-09-09T08:11:23;17.60;99.90
54518;DHT22;40423;53.176;6.002;2022-09-09T08:13:51;17.70;99.90
54518;DHT22;40423;53.176;6.002;2022-09-09T08:16:20;17.70;99.90
54518;DHT22;40423;53.176;6.002;2022-09-09T08:18:49;17.80;99.90
54518;DHT22;40423;53.176;6.002;2022-09-09T08:21:25;17.90;99.90
54518;DHT22;40423;53.176;6.002;2022-09-09T08:23:53;18.00;99.90
54518;DHT22;40423;53.176;6.002;2022-09-09T08:26:21;18.00;99.90
54518;DHT22;40423;53.176;6.002;2022-09-09T08:28:49;17.90;99.90
54518;DHT22;40423;53.176;6.002;2022-09-09T08:31:19;17.70;99.90
54518;DHT22;40423;53.176;6.002;2022-09-09T08:33:46;17.70;99.90
54518;DHT22;40423;53.176;6.002;2022-09-09T08:36:14;17.70;99.90
54518;DHT22;40423;53.176;6.002;2022-09-09T08:38:41;17.80;99.90
54518;DHT22;40423;53.176;6.002;2022-09-09T08:52:15;17.80;99.90
54518;DHT22;40423;53.176;6.002;2022-09-09T08:54:42;17.80;99.90
54518;DHT22;40423;53.176;6.002;2022-09-09T08:57:14;17.90;99.90
54518;DHT22;40423;53.176;6.002;2022-09-09T08:59:42;17.90;99.90
54518;DHT22;40423;53.176;6.002;2022-09-09T09:02:33;18.00;99.90
54518;DHT22;40423;53.176;6.002;2022-09-09T09:05:27;17.90;99.90
54518;DHT22;40423;53.176;6.002;2022-09-09T09:10:51;18.10;99.90
54518;DHT22;40423;53.176;6.002;2022-09-09T09:13:20;18.30;99.90
54518;DHT22;40423;53.176;6.002;2022-09-09T09:16:00;18.60;99.90
54518;DHT22;40423;53.176;6.002;2022-09-09T09:18:27;18.70;99.90
54518;DHT22;40423;53.176;6.002;2022-09-09T09:21:05;18.80;99.90
54518;DHT22;40423;53.176;6.002;2022-09-09T09:23:55;18.80;99.90
54518;DHT22;40423;53.176;6.002;2022-09-09T09:26:25;18.80;99.90
54518;DHT22;40423;53.176;6.002;2022-09-09T09:28:55;18.70;99.90
54518;DHT22;40423;53.176;6.002;2022-09-09T09:31:22;18.90;99.90
54518;DHT22;40423;53.176;6.002;2022-09-09T09:33:56;18.90;99.90
54518;DHT22;40423;53.176;6.002;2022-09-09T09:36:34;18.80;99.90
54518;DHT22;40423;53.176;6.002;2022-09-09T09:39:02;18.80;99.90
54518;DHT22;40423;53.176;6.002;2022-09-09T09:41:34;18.70;99.90
54518;DHT22;40423;53.176;6.002;2022-09-09T09:44:02;18.70;99.90
54518;DHT22;40423;53.176;6.002;2022-09-09T09:46:28;18.70;99.90
54518;DHT22;40423;53.176;6.002;2022-09-09T09:49:01;18.60;99.90
54518;DHT22;40423;53.176;6.002;2022-09-09T09:51:29;18.60;99.90
54518;DHT22;40423;53.176;6.002;2022-09-09T09:56:35;18.70;99.90
54518;DHT22;40423;53.176;6.002;2022-09-09T09:59:01;18.70;99.90
54518;DHT22;40423;53.176;6.002;2022-09-09T10:01:29;18.80;99.90
54518;DHT22;40423;53.176;6.002;2022-09-09T10:04:14;18.80;99.90
54518;DHT22;40423;53.176;6.002;2022-09-09T10:06:41;18.90;99.90
54518;DHT22;40423;53.176;6.002;2022-09-09T10:09:24;18.90;99.90
54518;DHT22;40423;53.176;6.002;2022-09-09T10:14:47;19.00;99.90
54518;DHT22;40423;53.176;6.002;2022-09-09T10:20:11;18.90;99.90
54518;DHT22;40423;53.176;6.002;2022-09-09T10:22:45;18.80;99.90
54518;DHT22;40423;53.176;6.002;2022-09-09T10:25:34;18.80;99.90
54518;DHT22;40423;53.176;6.002;2022-09-09T10:36:22;18.70;99.90
54518;DHT22;40423;53.176;6.002;2022-09-09T10:39:02;18.90;99.90
54518;DHT22;40423;53.176;6.002;2022-09-09T10:41:58;19.10;99.90
54518;DHT22;40423;53.176;6.002;2022-09-09T10:47:10;19.20;99.90
54518;DHT22;40423;53.176;6.002;2022-09-09T10:52:23;19.40;99.90
54518;DHT22;40423;53.176;6.002;2022-09-09T10:55:02;19.40;99.90
54518;DHT22;40423;53.176;6.002;2022-09-09T10:57:44;19.50;99.90
54518;DHT22;40423;53.176;6.002;2022-09-09T11:00:21;19.70;99.90
54518;DHT22;40423;53.176;6.002;2022-09-09T11:03:01;19.80;99.90
54518;DHT22;40423;53.176;6.002;2022-09-09T11:05:31;19.90;99.90
54518;DHT22;40423;53.176;6.002;2022-09-09T11:08:19;19.90;99.90
54518;DHT22;40423;53.176;6.002;2022-09-09T11:11:15;20.10;99.90
54518;DHT22;40423;53.176;6.002;2022-09-09T11:16:32;20.30;99.90
54518;DHT22;40423;53.176;6.002;2022-09-09T11:19:24;20.20;99.90
54518;DHT22;40423;53.176;6.002;2022-09-09T11:21:53;20.10;99.90
54518;DHT22;40423;53.176;6.002;2022-09-09T11:27:06;20.00;99.90
54518;DHT22;40423;53.176;6.002;2022-09-09T11:32:21;20.00;99.90
54518;DHT22;40423;53.176;6.002;2022-09-09T11:34:58;20.00;99.90
54518;DHT22;40423;53.176;6.002;2022-09-09T11:42:38;20.50;99.90
54518;DHT22;40423;53.176;6.002;2022-09-09T11:45:19;20.70;99.90
54518;DHT22;40423;53.176;6.002;2022-09-09T11:48:00;20.80;99.90
54518;DHT22;40423;53.176;6.002;2022-09-09T11:53:19;20.60;99.90
54518;DHT22;40423;53.176;6.002;2022-09-09T11:55:47;20.40;99.90
54518;DHT22;40423;53.176;6.002;2022-09-09T12:06:14;20.90;99.90
54518;DHT22;40423;53.176;6.002;2022-09-09T12:08:43;21.20;99.90
54518;DHT22;40423;53.176;6.002;2022-09-09T12:11:11;21.30;99.90
54518;DHT22;40423;53.176;6.002;2022-09-09T12:13:37;21.30;99.90
54518;DHT22;40423;53.176;6.002;2022-09-09T12:16:03;21.20;99.90
54518;DHT22;40423;53.176;6.002;2022-09-09T12:18:35;21.10;99.90
54518;DHT22;40423;53.176;6.002;2022-09-09T12:24:13;21.00;99.90
54518;DHT22;40423;53.176;6.002;2022-09-09T12:27:20;21.00;99.90
54518;DHT22;40423;53.176;6.002;2022-09-09T12:30:04;21.00;99.90
54518;DHT22;40423;53.176;6.002;2022-09-09T12:32:33;21.00;99.90
54518;DHT22;40423;53.176;6.002;2022-09-09T12:35:04;20.90;99.90
54518;DHT22;40423;53.176;6.002;2022-09-09T12:37:54;21.00;99.90
54518;DHT22;40423;53.176;6.002;2022-09-09T12:40:28;20.90;99.90
54518;DHT22;40423;53.176;6.002;2022-09-09T12:42:54;20.80;99.90
54518;DHT22;40423;53.176;6.002;2022-09-09T12:45:25;20.70;99.90
54518;DHT22;40423;53.176;6.002;2022-09-09T12:50:24;20.60;99.90
54518;DHT22;40423;53.176;6.002;2022-09-09T12:53:03;20.50;99.90
54518;DHT22;40423;53.176;6.002;2022-09-09T12:55:35;20.50;99.90
54518;DHT22;40423;53.176;6.002;2022-09-09T12:58:03;20.70;99.90
54518;DHT22;40423;53.176;6.002;2022-09-09T13:00:31;21.20;99.90
54518;DHT22;40423;53.176;6.002;2022-09-09T13:03:01;21.60;99.90
54518;DHT22;40423;53.176;6.002;2022-09-09T13:05:35;21.90;99.90
54518;DHT22;40423;53.176;6.002;2022-09-09T13:08:05;22.10;99.90
54518;DHT22;40423;53.176;6.002;2022-09-09T13:10:34;22.10;99.80
54518;DHT22;40423;53.176;6.002;2022-09-09T13:13:01;21.90;99.90
54518;DHT22;40423;53.176;6.002;2022-09-09T13:15:29;21.80;99.90
54518;DHT22;40423;53.176;6.002;2022-09-09T13:18:07;21.60;99.90
54518;DHT22;40423;53.176;6.002;2022-09-09T13:20:37;21.50;99.90
54518;DHT22;40423;53.176;6.002;2022-09-09T13:23:02;21.30;99.90
54518;DHT22;40423;53.176;6.002;2022-09-09T13:25:29;21.30;99.90
54518;DHT22;40423;53.176;6.002;2022-09-09T13:28:02;21.40;99.90
54518;DHT22;40423;53.176;6.002;2022-09-09T13:30:37;21.60;99.90
54518;DHT22;40423;53.176;6.002;2022-09-09T13:35:55;22.10;99.90
54518;DHT22;40423;53.176;6.002;2022-09-09T13:38:21;22.20;99.90
54518;DHT22;40423;53.176;6.002;2022-09-09T13:43:50;22.00;99.70
54518;DHT22;40423;53.176;6.002;2022-09-09T13:46:35;21.60;99.90
54518;DHT22;40423;53.176;6.002;2022-09-09T13:51:41;21.10;99.90
54518;DHT22;40423;53.176;6.002;2022-09-09T13:54:11;20.90;99.90
54518;DHT22;40423;53.176;6.002;2022-09-09T13:56:38;20.80;99.90
54518;DHT22;40423;53.176;6.002;2022-09-09T13:59:05;20.90;99.90
54518;DHT22;40423;53.176;6.002;2022-09-09T14:01:33;21.20;99.90
54518;DHT22;40423;53.176;6.002;2022-09-09T14:04:00;21.40;99.90
54518;DHT22;40423;53.176;6.002;2022-09-09T14:06:26;21.60;99.90
54518;DHT22;40423;53.176;6.002;2022-09-09T14:08:53;21.80;99.90
54518;DHT22;40423;53.176;6.002;2022-09-09T14:11:20;21.80;99.90
54518;DHT22;40423;53.176;6.002;2022-09-09T14:13:50;21.80;99.90
54518;DHT22;40423;53.176;6.002;2022-09-09T14:16:17;21.80;99.90
54518;DHT22;40423;53.176;6.002;2022-09-09T14:18:44;21.70;99.90
54518;DHT22;40423;53.176;6.002;2022-09-09T14:21:10;21.60;99.90
54518;DHT22;40423;53.176;6.002;2022-09-09T14:23:37;21.50;99.90
54518;DHT22;40423;53.176;6.002;2022-09-09T14:26:04;21.50;99.90
54518;DHT22;40423;53.176;6.002;2022-09-09T14:28:30;21.40;99.90
54518;DHT22;40423;53.176;6.002;2022-09-09T14:30:59;21.40;99.90
54518;DHT22;40423;53.176;6.002;2022-09-09T14:33:26;21.40;99.90
54518;DHT22;40423;53.176;6.002;2022-09-09T14:35:59;21.50;99.90
54518;DHT22;40423;53.176;6.002;2022-09-09T14:38:28;21.50;99.90
54518;DHT22;40423;53.176;6.002;2022-09-09T14:40:54;21.30;99.90
54518;DHT22;40423;53.176;6.002;2022-09-09T14:43:20;21.30;99.90
54518;DHT22;40423;53.176;6.002;2022-09-09T14:45:46;21.10;99.90
54518;DHT22;40423;53.176;6.002;2022-09-09T14:48:14;21.10;99.90
54518;DHT22;40423;53.176;6.002;2022-09-09T14:50:41;21.00;99.90
54518;DHT22;40423;53.176;6.002;2022-09-09T14:53:08;21.00;99.90
54518;DHT22;40423;53.176;6.002;2022-09-09T14:55:34;21.00;99.90
54518;DHT22;40423;53.176;6.002;2022-09-09T14:58:00;21.00;99.90
54518;DHT22;40423;53.176;6.002;2022-09-09T15:00:26;21.00;99.90
54518;DHT22;40423;53.176;6.002;2022-09-09T15:02:53;20.90;99.90
54518;DHT22;40423;53.176;6.002;2022-09-09T15:05:19;20.90;99.90
54518;DHT22;40423;53.176;6.002;2022-09-09T15:07:45;20.70;99.90
54518;DHT22;40423;53.176;6.002;2022-09-09T15:10:11;20.70;99.90
54518;DHT22;40423;53.176;6.002;2022-09-09T15:12:37;20.60;99.90
54518;DHT22;40423;53.176;6.002;2022-09-09T15:15:07;20.60;99.90
54518;DHT22;40423;53.176;6.002;2022-09-09T15:17:33;20.50;99.90
54518;DHT22;40423;53.176;6.002;2022-09-09T15:19:59;20.30;99.90
54518;DHT22;40423;53.176;6.002;2022-09-09T15:22:25;20.20;99.90
54518;DHT22;40423;53.176;6.002;2022-09-09T15:24:51;20.10;99.90
54518;DHT22;40423;53.176;6.002;2022-09-09T15:27:17;20.00;99.90
54518;DHT22;40423;53.176;6.002;2022-09-09T15:29:43;19.80;99.90
54518;DHT22;40423;53.176;6.002;2022-09-09T15:32:09;19.70;99.90
54518;DHT22;40423;53.176;6.002;2022-09-09T15:34:35;19.70;99.90
54518;DHT22;40423;53.176;6.002;2022-09-09T15:37:01;19.60;99.90
54518;DHT22;40423;53.176;6.002;2022-09-09T15:39:27;19.60;99.90
54518;DHT22;40423;53.176;6.002;2022-09-09T15:41:53;19.60;99.90
54518;DHT22;40423;53.176;6.002;2022-09-09T15:44:18;19.50;99.90
54518;DHT22;40423;53.176;6.002;2022-09-09T15:46:49;19.40;99.90
54518;DHT22;40423;53.176;6.002;2022-09-09T15:49:20;19.40;99.90
54518;DHT22;40423;53.176;6.002;2022-09-09T15:51:55;19.40;99.90
54518;DHT22;40423;53.176;6.002;2022-09-09T15:54:22;19.30;99.90
54518;DHT22;40423;53.176;6.002;2022-09-09T15:56:55;19.20;99.90
54518;DHT22;40423;53.176;6.002;2022-09-09T15:59:26;19.20;99.90
54518;DHT22;40423;53.176;6.002;2022-09-09T16:01:53;19.20;99.90
54518;DHT22;40423;53.176;6.002;2022-09-09T16:04:21;19.10;99.90
54518;DHT22;40423;53.176;6.002;2022-09-09T16:06:51;19.10;99.90
54518;DHT22;40423;53.176;6.002;2022-09-09T16:09:17;19.10;99.90
54518;DHT22;40423;53.176;6.002;2022-09-09T16:11:43;19.10;99.90
54518;DHT22;40423;53.176;6.002;2022-09-09T16:14:09;19.00;99.90
54518;DHT22;40423;53.176;6.002;2022-09-09T16:16:36;19.00;99.90
54518;DHT22;40423;53.176;6.002;2022-09-09T16:19:08;19.00;99.90
54518;DHT22;40423;53.176;6.002;2022-09-09T16:21:40;19.00;99.90
54518;DHT22;40423;53.176;6.002;2022-09-09T16:24:08;18.90;99.90
54518;DHT22;40423;53.176;6.002;2022-09-09T16:26:35;18.90;99.90
54518;DHT22;40423;53.176;6.002;2022-09-09T16:29:03;18.90;99.90
54518;DHT22;40423;53.176;6.002;2022-09-09T16:31:29;18.90;99.90
54518;DHT22;40423;53.176;6.002;2022-09-09T16:33:56;18.90;99.90
54518;DHT22;40423;53.176;6.002;2022-09-09T16:36:26;18.80;99.90
54518;DHT22;40423;53.176;6.002;2022-09-09T16:38:53;18.80;99.90
54518;DHT22;40423;53.176;6.002;2022-09-09T16:41:20;18.80;99.90
54518;DHT22;40423;53.176;6.002;2022-09-09T16:43:46;18.80;99.90
54518;DHT22;40423;53.176;6.002;2022-09-09T16:46:17;18.80;99.90
54518;DHT22;40423;53.176;6.002;2022-09-09T16:48:44;18.70;99.90
54518;DHT22;40423;53.176;6.002;2022-09-09T16:51:25;18.70;99.90
54518;DHT22;40423;53.176;6.002;2022-09-09T16:53:53;18.70;99.90
54518;DHT22;40423;53.176;6.002;2022-09-09T16:56:21;18.70;99.90
54518;DHT22;40423;53.176;6.002;2022-09-09T16:58:53;18.60;99.90
54518;DHT22;40423;53.176;6.002;2022-09-09T17:01:25;18.60;99.90
54518;DHT22;40423;53.176;6.002;2022-09-09T17:03:58;18.40;99.90
54518;DHT22;40423;53.176;6.002;2022-09-09T17:06:24;18.40;99.90
54518;DHT22;40423;53.176;6.002;2022-09-09T17:08:55;18.30;99.90
54518;DHT22;40423;53.176;6.002;2022-09-09T17:11:21;18.30;99.90
54518;DHT22;40423;53.176;6.002;2022-09-09T17:13:47;18.30;99.90
54518;DHT22;40423;53.176;6.002;2022-09-09T17:16:14;18.20;99.90
54518;DHT22;40423;53.176;6.002;2022-09-09T17:18:40;18.30;99.90
54518;DHT22;40423;53.176;6.002;2022-09-09T17:21:09;18.30;99.90
54518;DHT22;40423;53.176;6.002;2022-09-09T17:23:36;18.30;99.90
54518;DHT22;40423;53.176;6.002;2022-09-09T17:26:05;18.30;99.90
54518;DHT22;40423;53.176;6.002;2022-09-09T17:28:36;18.40;99.90
54518;DHT22;40423;53.176;6.002;2022-09-09T17:31:08;18.40;99.90
54518;DHT22;40423;53.176;6.002;2022-09-09T17:33:39;18.40;99.90
54518;DHT22;40423;53.176;6.002;2022-09-09T17:36:09;18.30;99.90
54518;DHT22;40423;53.176;6.002;2022-09-09T17:38:37;18.40;99.90
54518;DHT22;40423;53.176;6.002;2022-09-09T17:41:09;18.30;99.90